Time,TemperatureF,DewpointF,PressureIn,WindDirection,WindDirectionDegrees,WindSpeedMPH,WindSpeedGustMPH,Humidity,HourlyPrecipIn,Conditions,Clouds,dailyrainin,SoftwareType,DateUTC
2013-06-22 00:06:00,83.4,73.0,29.57,SSE,157,3.0,7.0,70,0.00,,,0.00,weatherlink.com 1.10,2013-06-22 05:06:00,
2013-06-22 00:21:00,83.2,72.0,29.58,SW,221,3.0,10.0,70,0.00,,,0.00,weatherlink.com 1.10,2013-06-22 05:21:00,
2013-06-22 00:36:00,82.9,72.0,29.58,SSE,157,3.0,10.0,70,0.00,,,0.00,weatherlink.com 1.10,2013-06-22 05:36:00,
2013-06-22 00:51:00,82.5,72.0,29.58,SW,235,4.0,7.0,71,0.00,,,0.00,weatherlink.com 1.10,2013-06-22 05:51:00,
2013-06-22 01:06:00,82.2,72.0,29.58,SW,223,5.0,9.0,71,0.00,,,0.00,weatherlink.com 1.10,2013-06-22 06:06:00,
2013-06-22 01:21:00,82.1,72.0,29.57,WSW,252,4.0,9.0,72,0.00,,,0.00,weatherlink.com 1.10,2013-06-22 06:21:00,
2013-06-22 01:36:00,81.9,72.0,29.57,SSW,213,4.0,7.0,72,0.00,,,0.00,weatherlink.com 1.10,2013-06-22 06:36:00,
2013-06-22 01:51:00,81.8,72.0,29.59,West,263,0.0,5.0,73,0.00,,,0.00,weatherlink.com 1.10,2013-06-22 06:51:00,
2013-06-22 02:06:00,81.7,72.0,29.60,South,183,0.0,5.0,73,0.00,,,0.00,weatherlink.com 1.10,2013-06-22 07:06:00,
2013-06-22 02:21:00,81.4,72.0,29.61,WSW,247,2.0,3.0,74,0.00,,,0.00,weatherlink.com 1.10,2013-06-22 07:21:00,
2013-06-22 02:36:00,81.4,73.0,29.62,WSW,237,1.0,5.0,75,0.00,,,0.00,weatherlink.com 1.10,2013-06-22 07:36:00,
2013-06-22 02:51:00,81.3,67.0,29.66,NW,304,7.0,11.0,63,0.00,,,0.00,weatherlink.com 1.10,2013-06-22 07:51:00,
2013-06-22 03:06:00,80.4,62.0,29.69,NW,325,4.0,11.0,54,0.00,,,0.00,weatherlink.com 1.10,2013-06-22 08:06:00,
2013-06-22 03:21:00,78.7,63.0,29.68,North,360,0.0,9.0,59,0.00,,,0.00,weatherlink.com 1.10,2013-06-22 08:21:00,
2013-06-22 03:36:00,76.7,63.0,29.68,NNW,330,0.0,5.0,62,0.00,,,0.00,weatherlink.com 1.10,2013-06-22 08:36:00,
2013-06-22 03:51:00,73.5,64.0,29.66,NNW,333,0.0,1.0,71,0.00,,,0.00,weatherlink.com 1.10,2013-06-22 08:51:00,
2013-06-22 04:06:00,72.7,64.0,29.64,NNW,333,0.0,1.0,75,0.00,,,0.00,weatherlink.com 1.10,2013-06-22 09:06:00,
2013-06-22 04:22:00,71.4,65.0,29.62,NNW,333,0.0,1.0,80,0.00,,,0.00,weatherlink.com 1.10,2013-06-22 09:22:00,
2013-06-22 04:37:00,70.5,64.0,29.63,NW,326,0.0,0.0,81,0.00,,,0.00,weatherlink.com 1.10,2013-06-22 09:37:00,
2013-06-22 04:52:00,70.7,64.0,29.66,NW,326,0.0,0.0,80,0.00,,,0.00,weatherlink.com 1.10,2013-06-22 09:52:00,
2013-06-22 05:07:00,71.2,64.0,29.67,NW,326,0.0,0.0,79,0.00,,,0.00,weatherlink.com 1.10,2013-06-22 10:07:00,
2013-06-22 05:22:00,71.4,65.0,29.68,NW,326,0.0,0.0,79,0.00,,,0.00,weatherlink.com 1.10,2013-06-22 10:22:00,
2013-06-22 05:37:00,71.5,65.0,29.71,NW,326,0.0,0.0,79,0.00,,,0.00,weatherlink.com 1.10,2013-06-22 10:37:00,
2013-06-22 05:52:00,72.0,65.0,29.70,NW,326,0.0,0.0,79,0.00,,,0.00,weatherlink.com 1.10,2013-06-22 10:52:00,
2013-06-22 06:07:00,72.2,65.0,29.71,NW,326,0.0,0.0,78,0.00,,,0.00,weatherlink.com 1.10,2013-06-22 11:07:00,
2013-06-22 06:22:00,72.1,65.0,29.71,NW,326,0.0,0.0,78,0.00,,,0.00,weatherlink.com 1.10,2013-06-22 11:22:00,
2013-06-22 06:37:00,72.1,65.0,29.71,NW,326,0.0,0.0,79,0.00,,,0.00,weatherlink.com 1.10,2013-06-22 11:37:00,
2013-06-22 06:52:00,71.8,66.0,29.70,NW,326,0.0,0.0,81,0.00,,,0.00,weatherlink.com 1.10,2013-06-22 11:52:00,
2013-06-22 07:07:00,71.5,66.0,29.68,NW,326,0.0,0.0,82,0.00,,,0.00,weatherlink.com 1.10,2013-06-22 12:07:00,
2013-06-22 07:22:00,71.8,65.0,29.68,NW,326,0.0,0.0,80,0.00,,,0.00,weatherlink.com 1.10,2013-06-22 12:22:00,
2013-06-22 07:37:00,72.4,65.0,29.68,NW,326,0.0,0.0,78,0.00,,,0.00,weatherlink.com 1.10,2013-06-22 12:37:00,
2013-06-22 07:52:00,72.7,66.0,29.68,NW,326,0.0,1.0,79,0.00,,,0.00,weatherlink.com 1.10,2013-06-22 12:52:00,
2013-06-22 08:07:00,73.0,65.0,29.73,NNW,329,1.0,4.0,77,0.00,,,0.00,weatherlink.com 1.10,2013-06-22 13:07:00,
2013-06-22 08:22:00,72.7,66.0,29.72,NW,320,0.0,11.0,78,0.00,,,0.00,weatherlink.com 1.10,2013-06-22 13:22:00,
2013-06-22 08:37:00,72.2,66.0,29.73,NNW,343,0.0,1.0,80,0.00,,,0.00,weatherlink.com 1.10,2013-06-22 13:37:00,
2013-06-22 08:52:00,72.0,66.0,29.75,NNW,341,0.0,1.0,80,0.00,,,0.00,weatherlink.com 1.10,2013-06-22 13:52:00,
2013-06-22 09:07:00,71.6,65.0,29.75,NNW,339,0.0,3.0,79,0.00,,,0.00,weatherlink.com 1.10,2013-06-22 14:07:00,
2013-06-22 09:22:00,70.5,64.0,29.75,WSW,246,0.0,1.0,81,0.00,,,0.00,weatherlink.com 1.10,2013-06-22 14:22:00,
2013-06-22 09:37:00,69.2,65.0,29.77,NNW,348,0.0,1.0,86,0.00,,,0.00,weatherlink.com 1.10,2013-06-22 14:37:00,
2013-06-22 09:52:00,69.1,66.0,29.70,South,174,1.0,5.0,89,0.00,,,0.00,weatherlink.com 1.10,2013-06-22 14:52:00,
2013-06-22 10:07:00,69.2,65.0,29.64,South,180,5.0,7.0,87,0.00,,,0.00,weatherlink.com 1.10,2013-06-22 15:07:00,
2013-06-22 10:22:00,69.6,65.0,29.63,SE,132,0.0,10.0,86,0.00,,,0.00,weatherlink.com 1.10,2013-06-22 15:22:00,
2013-06-22 10:37:00,71.8,67.0,29.64,SSW,204,1.0,8.0,85,0.00,,,0.00,weatherlink.com 1.10,2013-06-22 15:37:00,
2013-06-22 10:52:00,74.9,67.0,29.64,SSE,149,2.0,15.0,77,0.00,,,0.00,weatherlink.com 1.10,2013-06-22 15:52:00,
2013-06-22 11:07:00,77.2,68.0,29.65,East,101,2.0,7.0,72,0.00,,,0.00,weatherlink.com 1.10,2013-06-22 16:07:00,
2013-06-22 11:22:00,79.1,69.0,29.65,SSE,155,0.0,9.0,70,0.00,,,0.00,weatherlink.com 1.10,2013-06-22 16:22:00,
2013-06-22 11:37:00,80.8,68.0,29.64,SE,130,0.0,9.0,66,0.00,,,0.00,weatherlink.com 1.10,2013-06-22 16:37:00,
2013-06-22 11:52:00,82.3,67.0,29.63,South,178,1.0,11.0,61,0.00,,,0.00,weatherlink.com 1.10,2013-06-22 16:52:00,
2013-06-22 12:07:00,83.8,66.0,29.62,SSE,150,1.0,13.0,56,0.00,,,0.00,weatherlink.com 1.10,2013-06-22 17:07:00,
2013-06-22 12:22:00,85.2,68.0,29.62,ESE,119,8.0,13.0,56,0.00,,,0.00,weatherlink.com 1.10,2013-06-22 17:22:00,
2013-06-22 12:37:00,86.5,69.0,29.61,SE,124,5.0,8.0,57,0.00,,,0.00,weatherlink.com 1.10,2013-06-22 17:37:00,
2013-06-22 12:52:00,87.4,70.0,29.61,East,91,2.0,8.0,57,0.00,,,0.00,weatherlink.com 1.10,2013-06-22 17:52:00,
2013-06-22 13:07:00,87.2,72.0,29.61,ESE,119,0.0,14.0,61,0.00,,,0.00,weatherlink.com 1.10,2013-06-22 18:07:00,
2013-06-22 13:22:00,87.4,74.0,29.60,SE,141,1.0,8.0,64,0.00,,,0.00,weatherlink.com 1.10,2013-06-22 18:22:00,
2013-06-22 13:37:00,88.7,75.0,29.59,ESE,110,0.0,5.0,65,0.00,,,0.00,weatherlink.com 1.10,2013-06-22 18:37:00,
2013-06-22 13:52:00,89.5,75.0,29.58,ESE,120,0.0,13.0,63,0.00,,,0.00,weatherlink.com 1.10,2013-06-22 18:52:00,
2013-06-22 14:07:00,88.9,74.0,29.57,SE,139,0.0,9.0,61,0.00,,,0.00,weatherlink.com 1.10,2013-06-22 19:07:00,
2013-06-22 14:22:00,88.6,74.0,29.58,South,182,1.0,10.0,63,0.00,,,0.00,weatherlink.com 1.10,2013-06-22 19:22:00,
2013-06-22 14:37:00,87.4,74.0,29.57,SSW,212,2.0,8.0,65,0.00,,,0.00,weatherlink.com 1.10,2013-06-22 19:37:00,
2013-06-22 14:52:00,86.9,73.0,29.57,South,176,0.0,9.0,63,0.00,,,0.00,weatherlink.com 1.10,2013-06-22 19:52:00,
2013-06-22 15:07:00,86.8,73.0,29.57,ESE,119,0.0,8.0,64,0.00,,,0.00,weatherlink.com 1.10,2013-06-22 20:07:00,
2013-06-22 15:22:00,87.6,74.0,29.56,WSW,244,0.0,8.0,64,0.00,,,0.00,weatherlink.com 1.10,2013-06-22 20:22:00,
2013-06-22 15:38:00,89.0,75.0,29.56,SSW,198,0.0,10.0,63,0.00,,,0.00,weatherlink.com 1.10,2013-06-22 20:38:00,
2013-06-22 15:53:00,89.9,74.0,29.55,SW,236,3.0,9.0,60,0.00,,,0.00,weatherlink.com 1.10,2013-06-22 20:53:00,
2013-06-22 16:08:00,89.8,74.0,29.55,ESE,120,2.0,10.0,59,0.00,,,0.00,weatherlink.com 1.10,2013-06-22 21:08:00,
2013-06-22 16:23:00,90.9,72.0,29.55,SSE,160,2.0,10.0,54,0.00,,,0.00,weatherlink.com 1.10,2013-06-22 21:23:00,
2013-06-22 16:38:00,91.2,73.0,29.55,SW,225,1.0,14.0,55,0.00,,,0.00,weatherlink.com 1.10,2013-06-22 21:38:00,
2013-06-22 16:53:00,90.5,72.0,29.55,SSW,208,7.0,8.0,54,0.00,,,0.00,weatherlink.com 1.10,2013-06-22 21:53:00,
2013-06-22 17:08:00,90.4,71.0,29.55,SW,216,1.0,11.0,53,0.00,,,0.00,weatherlink.com 1.10,2013-06-22 22:08:00,
2013-06-22 17:23:00,90.3,71.0,29.55,SW,229,0.0,10.0,53,0.00,,,0.00,weatherlink.com 1.10,2013-06-22 22:23:00,
2013-06-22 17:38:00,89.7,71.0,29.55,SW,220,1.0,14.0,55,0.00,,,0.00,weatherlink.com 1.10,2013-06-22 22:38:00,
2013-06-22 17:53:00,89.3,72.0,29.55,SW,219,3.0,10.0,56,0.00,,,0.00,weatherlink.com 1.10,2013-06-22 22:53:00,
2013-06-22 18:08:00,89.9,72.0,29.54,WSW,248,0.0,8.0,56,0.00,,,0.00,weatherlink.com 1.10,2013-06-22 23:08:00,
2013-06-22 18:23:00,90.1,73.0,29.54,SW,229,2.0,8.0,58,0.00,,,0.00,weatherlink.com 1.10,2013-06-22 23:23:00,
2013-06-22 18:38:00,90.0,72.0,29.53,SW,216,1.0,10.0,55,0.00,,,0.00,weatherlink.com 1.10,2013-06-22 23:38:00,
2013-06-22 18:53:00,89.3,69.0,29.53,WSW,248,5.0,10.0,52,0.00,,,0.00,weatherlink.com 1.10,2013-06-22 23:53:00,
2013-06-22 19:08:00,89.3,70.0,29.53,SW,229,0.0,9.0,53,0.00,,,0.00,weatherlink.com 1.10,2013-06-23 00:08:00,
2013-06-22 19:23:00,88.7,68.0,29.53,South,169,0.0,11.0,51,0.00,,,0.00,weatherlink.com 1.10,2013-06-23 00:23:00,
2013-06-22 19:38:00,87.8,69.0,29.53,South,182,1.0,10.0,53,0.00,,,0.00,weatherlink.com 1.10,2013-06-23 00:38:00,
2013-06-22 19:53:00,87.0,69.0,29.53,South,186,0.0,5.0,55,0.00,,,0.00,weatherlink.com 1.10,2013-06-23 00:53:00,
2013-06-22 20:08:00,86.4,69.0,29.53,West,274,1.0,8.0,56,0.00,,,0.00,weatherlink.com 1.10,2013-06-23 01:08:00,
2013-06-22 20:23:00,85.7,69.0,29.53,ESE,123,1.0,9.0,57,0.00,,,0.00,weatherlink.com 1.10,2013-06-23 01:23:00,
2013-06-22 20:38:00,85.0,68.0,29.53,WNW,286,0.0,10.0,57,0.00,,,0.00,weatherlink.com 1.10,2013-06-23 01:38:00,
2013-06-22 20:53:00,84.4,68.0,29.53,South,175,0.0,8.0,59,0.00,,,0.00,weatherlink.com 1.10,2013-06-23 01:53:00,
2013-06-22 21:08:00,83.8,68.0,29.53,SSE,150,0.0,8.0,60,0.00,,,0.00,weatherlink.com 1.10,2013-06-23 02:08:00,
2013-06-22 21:23:00,83.3,68.0,29.53,East,92,1.0,7.0,61,0.00,,,0.00,weatherlink.com 1.10,2013-06-23 02:23:00,
2013-06-22 21:38:00,82.9,68.0,29.54,SSE,155,0.0,11.0,62,0.00,,,0.00,weatherlink.com 1.10,2013-06-23 02:38:00,
2013-06-22 21:53:00,82.5,69.0,29.55,East,84,1.0,5.0,63,0.00,,,0.00,weatherlink.com 1.10,2013-06-23 02:53:00,
2013-06-22 22:08:00,82.1,68.0,29.56,SSW,200,1.0,6.0,63,0.00,,,0.00,weatherlink.com 1.10,2013-06-23 03:08:00,
2013-06-22 22:23:00,81.9,69.0,29.57,ESE,122,0.0,7.0,65,0.00,,,0.00,weatherlink.com 1.10,2013-06-23 03:23:00,
2013-06-22 22:38:00,81.6,69.0,29.57,South,178,6.0,7.0,66,0.00,,,0.00,weatherlink.com 1.10,2013-06-23 03:38:00,
2013-06-22 22:53:00,81.5,69.0,29.58,ESE,109,1.0,7.0,66,0.00,,,0.00,weatherlink.com 1.10,2013-06-23 03:53:00,
2013-06-22 23:08:00,81.2,70.0,29.57,ESE,121,2.0,9.0,68,0.00,,,0.00,weatherlink.com 1.10,2013-06-23 04:08:00,
2013-06-22 23:23:00,80.8,70.0,29.56,SSW,213,1.0,10.0,69,0.00,,,0.00,weatherlink.com 1.10,2013-06-23 04:23:00,
2013-06-22 23:38:00,80.6,70.0,29.56,East,99,1.0,6.0,70,0.00,,,0.00,weatherlink.com 1.10,2013-06-23 04:38:00,
2013-06-22 23:53:00,80.4,70.0,29.55,South,181,6.0,14.0,70,0.00,,,0.00,weatherlink.com 1.10,2013-06-23 04:53:00,